sensor_id;sensor_type;location;lat;lon;timestamp;pressure;altitude;pressure_sealevel;temperature;humidity
71966;BME280;59836;52.132;5.442;2023-04-15T00:02:20;100945.09;;;8.15;69.08
71966;BME280;59836;52.132;5.442;2023-04-15T00:04:47;100938.84;;;8.14;69.79
71966;BME280;59836;52.132;5.442;2023-04-15T00:07:14;100938.28;;;8.12;68.85
71966;BME280;59836;52.132;5.442;2023-04-15T00:09:41;100933.94;;;8.11;68.81
71966;BME280;59836;52.132;5.442;2023-04-15T00:12:08;100938.78;;;8.09;68.93
71966;BME280;59836;52.132;5.442;2023-04-15T00:14:34;100934.72;;;8.06;69.43
71966;BME280;59836;52.132;5.442;2023-04-15T00:17:03;100944.97;;;8.04;69.42
71966;BME280;59836;52.132;5.442;2023-04-15T00:19:30;100943.00;;;8.00;69.32
71966;BME280;59836;52.132;5.442;2023-04-15T00:22:14;100937.03;;;7.97;69.79
71966;BME280;59836;52.132;5.442;2023-04-15T00:24:54;100938.09;;;7.96;69.67
71966;BME280;59836;52.132;5.442;2023-04-15T00:27:21;100936.44;;;7.95;70.68
71966;BME280;59836;52.132;5.442;2023-04-15T00:29:58;100935.16;;;7.98;70.10
71966;BME280;59836;52.132;5.442;2023-04-15T00:32:26;100935.16;;;7.98;70.77
71966;BME280;59836;52.132;5.442;2023-04-15T00:35:21;100938.66;;;7.98;70.16
71966;BME280;59836;52.132;5.442;2023-04-15T00:37:48;100946.44;;;7.95;71.04
71966;BME280;59836;52.132;5.442;2023-04-15T00:40:16;100948.59;;;7.93;70.18
71966;BME280;59836;52.132;5.442;2023-04-15T00:42:45;100926.97;;;7.93;69.91
71966;BME280;59836;52.132;5.442;2023-04-15T00:45:18;100936.97;;;7.92;70.31
71966;BME280;59836;52.132;5.442;2023-04-15T00:47:45;100935.34;;;7.91;70.01
71966;BME280;59836;52.132;5.442;2023-04-15T00:50:20;100948.28;;;7.89;70.07
71966;BME280;59836;52.132;5.442;2023-04-15T00:52:46;100949.91;;;7.90;69.95
71966;BME280;59836;52.132;5.442;2023-04-15T00:55:14;100944.50;;;7.90;70.08
71966;BME280;59836;52.132;5.442;2023-04-15T00:57:41;100949.28;;;7.83;70.94
71966;BME280;59836;52.132;5.442;2023-04-15T01:00:09;100948.69;;;7.81;71.02
71966;BME280;59836;52.132;5.442;2023-04-15T01:02:41;100947.56;;;7.77;70.84
71966;BME280;59836;52.132;5.442;2023-04-15T01:05:25;100951.81;;;7.73;71.00
71966;BME280;59836;52.132;5.442;2023-04-15T01:07:52;100947.16;;;7.68;71.72
71966;BME280;59836;52.132;5.442;2023-04-15T01:10:18;100944.13;;;7.64;71.16
71966;BME280;59836;52.132;5.442;2023-04-15T01:12:54;100948.41;;;7.60;71.19
71966;BME280;59836;52.132;5.442;2023-04-15T01:15:22;100949.47;;;7.59;70.85
71966;BME280;59836;52.132;5.442;2023-04-15T01:18:16;100944.06;;;7.59;71.31
71966;BME280;59836;52.132;5.442;2023-04-15T01:20:56;100950.75;;;7.57;71.55
71966;BME280;59836;52.132;5.442;2023-04-15T01:23:23;100949.94;;;7.56;71.56
71966;BME280;59836;52.132;5.442;2023-04-15T01:25:50;100949.13;;;7.56;71.48
71966;BME280;59836;52.132;5.442;2023-04-15T01:28:26;100941.78;;;7.51;71.29
71966;BME280;59836;52.132;5.442;2023-04-15T01:31:12;100945.28;;;7.51;71.35
71966;BME280;59836;52.132;5.442;2023-04-15T01:33:41;100953.06;;;7.48;72.20
71966;BME280;59836;52.132;5.442;2023-04-15T01:36:38;100948.16;;;7.45;72.04
71966;BME280;59836;52.132;5.442;2023-04-15T01:39:05;100951.91;;;7.44;71.89
71966;BME280;59836;52.132;5.442;2023-04-15T01:41:31;100946.25;;;7.45;71.92
71966;BME280;59836;52.132;5.442;2023-04-15T01:43:58;100952.50;;;7.46;71.86
71966;BME280;59836;52.132;5.442;2023-04-15T01:46:37;100950.03;;;7.44;71.95
71966;BME280;59836;52.132;5.442;2023-04-15T01:49:17;100948.66;;;7.42;72.04
71966;BME280;59836;52.132;5.442;2023-04-15T01:51:51;100949.13;;;7.38;72.36
71966;BME280;59836;52.132;5.442;2023-04-15T01:54:18;100948.34;;;7.38;72.69
71966;BME280;59836;52.132;5.442;2023-04-15T01:56:50;100946.13;;;7.35;72.32
71966;BME280;59836;52.132;5.442;2023-04-15T01:59:17;100949.88;;;7.34;73.09
71966;BME280;59836;52.132;5.442;2023-04-15T02:01:44;100951.75;;;7.33;73.18
71966;BME280;59836;52.132;5.442;2023-04-15T02:04:10;100950.13;;;7.32;73.11
71966;BME280;59836;52.132;5.442;2023-04-15T02:06:43;100948.97;;;7.28;73.49
71966;BME280;59836;52.132;5.442;2023-04-15T02:09:10;100949.22;;;7.27;72.98
71966;BME280;59836;52.132;5.442;2023-04-15T02:11:47;100954.63;;;7.27;73.92
71966;BME280;59836;52.132;5.442;2023-04-15T02:14:34;100957.81;;;7.23;73.26
71966;BME280;59836;52.132;5.442;2023-04-15T02:17:04;100959.94;;;7.21;73.34
71966;BME280;59836;52.132;5.442;2023-04-15T02:19:34;100954.19;;;7.18;73.39
71966;BME280;59836;52.132;5.442;2023-04-15T02:22:00;100952.56;;;7.17;73.52
71966;BME280;59836;52.132;5.442;2023-04-15T02:24:29;100955.84;;;7.19;73.84
71966;BME280;59836;52.132;5.442;2023-04-15T02:26:56;100960.41;;;7.18;73.87
71966;BME280;59836;52.132;5.442;2023-04-15T02:29:36;100967.09;;;7.16;73.59
71966;BME280;59836;52.132;5.442;2023-04-15T02:32:05;100963.03;;;7.13;73.75
71966;BME280;59836;52.132;5.442;2023-04-15T02:34:32;100965.63;;;7.08;74.39
71966;BME280;59836;52.132;5.442;2023-04-15T02:40:21;100976.44;;;7.08;74.85
71966;BME280;59836;52.132;5.442;2023-04-15T02:42:49;100982.03;;;7.06;74.81
71966;BME280;59836;52.132;5.442;2023-04-15T02:45:17;100985.22;;;7.03;74.87
71966;BME280;59836;52.132;5.442;2023-04-15T02:47:46;100982.22;;;7.00;75.32
71966;BME280;59836;52.132;5.442;2023-04-15T02:50:14;100986.69;;;6.94;75.57
71966;BME280;59836;52.132;5.442;2023-04-15T02:52:52;100986.34;;;6.90;75.77
71966;BME280;59836;52.132;5.442;2023-04-15T02:55:31;100988.72;;;6.87;76.09
71966;BME280;59836;52.132;5.442;2023-04-15T02:57:58;100997.28;;;6.84;76.08
71966;BME280;59836;52.132;5.442;2023-04-15T03:00:31;100993.44;;;6.79;76.17
71966;BME280;59836;52.132;5.442;2023-04-15T03:03:04;100999.91;;;6.78;76.18
71966;BME280;59836;52.132;5.442;2023-04-15T03:05:31;101000.38;;;6.75;76.84
71966;BME280;59836;52.132;5.442;2023-04-15T03:07:59;101006.00;;;6.74;76.95
71966;BME280;59836;52.132;5.442;2023-04-15T03:10:26;101007.03;;;6.73;77.06
71966;BME280;59836;52.132;5.442;2023-04-15T03:12:53;101008.34;;;6.70;76.87
71966;BME280;59836;52.132;5.442;2023-04-15T03:15:19;101005.09;;;6.68;77.00
71966;BME280;59836;52.132;5.442;2023-04-15T03:17:46;101010.47;;;6.68;77.41
71966;BME280;59836;52.132;5.442;2023-04-15T03:20:14;101015.88;;;6.68;77.23
71966;BME280;59836;52.132;5.442;2023-04-15T03:22:42;101010.94;;;6.65;77.18
71966;BME280;59836;52.132;5.442;2023-04-15T03:25:13;101017.16;;;6.65;77.42
71966;BME280;59836;52.132;5.442;2023-04-15T03:27:40;101005.09;;;6.68;77.36
71966;BME280;59836;52.132;5.442;2023-04-15T03:30:07;101010.31;;;6.75;77.29
71966;BME280;59836;52.132;5.442;2023-04-15T03:32:34;101001.44;;;6.74;77.37
71966;BME280;59836;52.132;5.442;2023-04-15T03:35:06;101009.53;;;6.74;76.75
71966;BME280;59836;52.132;5.442;2023-04-15T03:37:33;101013.00;;;6.75;77.26
71966;BME280;59836;52.132;5.442;2023-04-15T03:39:59;101008.47;;;6.75;77.31
71966;BME280;59836;52.132;5.442;2023-04-15T03:42:30;101016.78;;;6.74;77.76
71966;BME280;59836;52.132;5.442;2023-04-15T03:44:57;101016.44;;;6.70;77.66
71966;BME280;59836;52.132;5.442;2023-04-15T03:47:23;101022.31;;;6.67;77.64
71966;BME280;59836;52.132;5.442;2023-04-15T03:49:49;101029.81;;;6.65;77.94
71966;BME280;59836;52.132;5.442;2023-04-15T03:52:22;101032.41;;;6.60;78.34
71966;BME280;59836;52.132;5.442;2023-04-15T03:54:49;101028.56;;;6.56;77.74
71966;BME280;59836;52.132;5.442;2023-04-15T03:57:16;101038.16;;;6.52;78.05
71966;BME280;59836;52.132;5.442;2023-04-15T03:59:43;101041.56;;;6.47;78.21
71966;BME280;59836;52.132;5.442;2023-04-15T04:02:15;101041.81;;;6.45;78.46
71966;BME280;59836;52.132;5.442;2023-04-15T04:04:42;101043.91;;;6.43;78.79
71966;BME280;59836;52.132;5.442;2023-04-15T04:07:14;101051.16;;;6.43;78.37
71966;BME280;59836;52.132;5.442;2023-04-15T04:10:01;101052.09;;;6.37;78.75
71966;BME280;59836;52.132;5.442;2023-04-15T04:12:34;101055.31;;;6.33;78.85
71966;BME280;59836;52.132;5.442;2023-04-15T04:15:19;101063.03;;;6.30;79.32
71966;BME280;59836;52.132;5.442;2023-04-15T04:18:10;101060.47;;;6.23;79.37
71966;BME280;59836;52.132;5.442;2023-04-15T04:20:37;101059.50;;;6.17;79.41
71966;BME280;59836;52.132;5.442;2023-04-15T04:23:03;101061.03;;;6.13;79.62
71966;BME280;59836;52.132;5.442;2023-04-15T04:25:30;101074.97;;;6.10;79.26
71966;BME280;59836;52.132;5.442;2023-04-15T04:27:56;101075.44;;;6.07;79.61
71966;BME280;59836;52.132;5.442;2023-04-15T04:30:23;101075.91;;;6.04;80.02
71966;BME280;59836;52.132;5.442;2023-04-15T04:32:49;101078.84;;;6.02;79.70
71966;BME280;59836;52.132;5.442;2023-04-15T04:35:45;101085.03;;;6.03;79.89
71966;BME280;59836;52.132;5.442;2023-04-15T04:38:12;101081.28;;;6.04;79.89
71966;BME280;59836;52.132;5.442;2023-04-15T04:40:38;101097.44;;;6.04;80.41
71966;BME280;59836;52.132;5.442;2023-04-15T04:43:14;101100.59;;;6.01;80.38
71966;BME280;59836;52.132;5.442;2023-04-15T04:45:41;101097.69;;;6.02;80.38
71966;BME280;59836;52.132;5.442;2023-04-15T04:48:09;101102.47;;;6.00;80.71
71966;BME280;59836;52.132;5.442;2023-04-15T04:50:35;101113.25;;;6.00;80.89
71966;BME280;59836;52.132;5.442;2023-04-15T04:53:02;101107.25;;;5.98;80.55
71966;BME280;59836;52.132;5.442;2023-04-15T04:55:31;101120.13;;;5.96;80.82
71966;BME280;59836;52.132;5.442;2023-04-15T04:58:08;101116.59;;;5.96;80.81
71966;BME280;59836;52.132;5.442;2023-04-15T05:00:42;101126.91;;;5.99;80.63
71966;BME280;59836;52.132;5.442;2023-04-15T05:03:14;101119.88;;;5.98;80.68
71966;BME280;59836;52.132;5.442;2023-04-15T05:05:51;101127.34;;;5.96;81.06
71966;BME280;59836;52.132;5.442;2023-04-15T05:08:18;101130.88;;;5.96;81.10
71966;BME280;59836;52.132;5.442;2023-04-15T05:10:45;101139.19;;;5.95;81.29
71966;BME280;59836;52.132;5.442;2023-04-15T05:13:25;101143.97;;;5.93;81.41
71966;BME280;59836;52.132;5.442;2023-04-15T05:15:52;101151.00;;;5.94;81.36
71966;BME280;59836;52.132;5.442;2023-04-15T05:18:19;101146.91;;;5.91;81.11
71966;BME280;59836;52.132;5.442;2023-04-15T05:20:46;101149.59;;;5.91;81.52
71966;BME280;59836;52.132;5.442;2023-04-15T05:23:15;101154.75;;;5.93;81.60
71966;BME280;59836;52.132;5.442;2023-04-15T05:25:43;101155.31;;;5.95;81.70
71966;BME280;59836;52.132;5.442;2023-04-15T05:28:22;101166.22;;;6.00;81.70
71966;BME280;59836;52.132;5.442;2023-04-15T05:30:49;101160.41;;;6.03;81.74
71966;BME280;59836;52.132;5.442;2023-04-15T05:33:41;101170.84;;;6.11;82.14
71966;BME280;59836;52.132;5.442;2023-04-15T05:36:07;101178.00;;;6.17;82.33
71966;BME280;59836;52.132;5.442;2023-04-15T05:38:39;101185.28;;;6.29;81.73
71966;BME280;59836;52.132;5.442;2023-04-15T05:41:09;101191.84;;;6.33;81.98
71966;BME280;59836;52.132;5.442;2023-04-15T05:43:35;101187.63;;;6.37;81.80
71966;BME280;59836;52.132;5.442;2023-04-15T05:46:11;101197.47;;;6.43;81.60
71966;BME280;59836;52.132;5.442;2023-04-15T05:48:42;101195.97;;;6.47;81.44
71966;BME280;59836;52.132;5.442;2023-04-15T05:51:09;101201.69;;;6.51;81.50
71966;BME280;59836;52.132;5.442;2023-04-15T05:53:36;101205.22;;;6.52;81.54
71966;BME280;59836;52.132;5.442;2023-04-15T05:56:03;101209.31;;;6.54;81.41
71966;BME280;59836;52.132;5.442;2023-04-15T05:58:29;101213.19;;;6.58;81.49
71966;BME280;59836;52.132;5.442;2023-04-15T06:00:56;101203.00;;;6.60;81.77
71966;BME280;59836;52.132;5.442;2023-04-15T06:03:22;101211.66;;;6.62;81.40
71966;BME280;59836;52.132;5.442;2023-04-15T06:05:49;101214.13;;;6.64;81.18
71966;BME280;59836;52.132;5.442;2023-04-15T06:08:28;101220.34;;;6.64;81.46
71966;BME280;59836;52.132;5.442;2023-04-15T06:10:55;101224.69;;;6.65;82.05
71966;BME280;59836;52.132;5.442;2023-04-15T06:13:21;101231.50;;;6.68;82.07
71966;BME280;59836;52.132;5.442;2023-04-15T06:15:48;101234.78;;;6.70;81.35
71966;BME280;59836;52.132;5.442;2023-04-15T06:18:14;101237.22;;;6.72;81.84
71966;BME280;59836;52.132;5.442;2023-04-15T06:20:53;101239.69;;;6.73;82.08
71966;BME280;59836;52.132;5.442;2023-04-15T06:23:20;101249.41;;;6.74;82.08
71966;BME280;59836;52.132;5.442;2023-04-15T06:25:46;101247.44;;;6.82;82.65
71966;BME280;59836;52.132;5.442;2023-04-15T06:28:13;101246.50;;;6.88;82.45
71966;BME280;59836;52.132;5.442;2023-04-15T06:30:39;101253.41;;;6.96;82.72
71966;BME280;59836;52.132;5.442;2023-04-15T06:33:06;101259.72;;;7.01;82.79
71966;BME280;59836;52.132;5.442;2023-04-15T06:35:33;101260.66;;;7.07;82.51
71966;BME280;59836;52.132;5.442;2023-04-15T06:37:59;101263.47;;;7.12;82.72
71966;BME280;59836;52.132;5.442;2023-04-15T06:40:25;101266.28;;;7.17;82.69
71966;BME280;59836;52.132;5.442;2023-04-15T06:42:53;101278.00;;;7.23;82.84
71966;BME280;59836;52.132;5.442;2023-04-15T06:45:20;101280.00;;;7.28;82.83
71966;BME280;59836;52.132;5.442;2023-04-15T06:47:47;101277.16;;;7.34;82.57
71966;BME280;59836;52.132;5.442;2023-04-15T06:50:16;101287.00;;;7.41;82.60
71966;BME280;59836;52.132;5.442;2023-04-15T06:52:42;101291.22;;;7.48;82.42
71966;BME280;59836;52.132;5.442;2023-04-15T06:55:11;101294.97;;;7.59;82.22
71966;BME280;59836;52.132;5.442;2023-04-15T06:57:59;101302.22;;;7.71;81.90
71966;BME280;59836;52.132;5.442;2023-04-15T07:00:26;101300.78;;;7.80;81.93
71966;BME280;59836;52.132;5.442;2023-04-15T07:02:53;101308.50;;;7.88;82.00
71966;BME280;59836;52.132;5.442;2023-04-15T07:05:30;101310.31;;;8.00;81.63
71966;BME280;59836;52.132;5.442;2023-04-15T07:07:57;101314.28;;;8.09;81.28
71966;BME280;59836;52.132;5.442;2023-04-15T07:10:24;101319.88;;;8.19;81.54
71966;BME280;59836;52.132;5.442;2023-04-15T07:12:51;101322.69;;;8.24;81.15
71966;BME280;59836;52.132;5.442;2023-04-15T07:15:19;101327.13;;;8.31;81.10
71966;BME280;59836;52.132;5.442;2023-04-15T07:17:46;101325.34;;;8.36;80.52
71966;BME280;59836;52.132;5.442;2023-04-15T07:20:13;101331.66;;;8.42;80.44
71966;BME280;59836;52.132;5.442;2023-04-15T07:22:39;101335.50;;;8.46;80.24
71966;BME280;59836;52.132;5.442;2023-04-15T07:25:06;101334.22;;;8.49;80.29
71966;BME280;59836;52.132;5.442;2023-04-15T07:27:34;101340.63;;;8.60;79.96
71966;BME280;59836;52.132;5.442;2023-04-15T07:30:01;101339.16;;;8.69;80.21
71966;BME280;59836;52.132;5.442;2023-04-15T07:32:27;101347.47;;;8.79;79.64
71966;BME280;59836;52.132;5.442;2023-04-15T07:34:54;101348.78;;;8.94;78.95
71966;BME280;59836;52.132;5.442;2023-04-15T07:37:23;101344.06;;;9.06;78.92
71966;BME280;59836;52.132;5.442;2023-04-15T07:39:54;101345.63;;;9.19;78.35
71966;BME280;59836;52.132;5.442;2023-04-15T07:42:33;101352.59;;;9.32;77.39
71966;BME280;59836;52.132;5.442;2023-04-15T07:45:00;101358.97;;;9.43;76.31
71966;BME280;59836;52.132;5.442;2023-04-15T07:47:26;101363.72;;;9.53;75.51
71966;BME280;59836;52.132;5.442;2023-04-15T07:49:53;101361.94;;;9.64;74.64
71966;BME280;59836;52.132;5.442;2023-04-15T07:52:19;101355.28;;;9.71;74.34
71966;BME280;59836;52.132;5.442;2023-04-15T07:54:49;101365.44;;;9.81;73.69
71966;BME280;59836;52.132;5.442;2023-04-15T07:57:15;101373.94;;;9.90;73.25
71966;BME280;59836;52.132;5.442;2023-04-15T07:59:43;101372.44;;;9.99;72.01
71966;BME280;59836;52.132;5.442;2023-04-15T08:02:10;101370.38;;;10.07;72.07
71966;BME280;59836;52.132;5.442;2023-04-15T08:04:37;101380.72;;;10.15;71.74
71966;BME280;59836;52.132;5.442;2023-04-15T08:07:04;101373.22;;;10.22;71.49
71966;BME280;59836;52.132;5.442;2023-04-15T08:09:34;101374.41;;;10.31;71.25
71966;BME280;59836;52.132;5.442;2023-04-15T08:12:01;101379.88;;;10.37;70.17
71966;BME280;59836;52.132;5.442;2023-04-15T08:14:28;101394.09;;;10.44;70.62
71966;BME280;59836;52.132;5.442;2023-04-15T08:16:54;101396.97;;;10.59;70.86
71966;BME280;59836;52.132;5.442;2023-04-15T08:19:21;101398.09;;;10.63;68.97
71966;BME280;59836;52.132;5.442;2023-04-15T08:21:48;101394.34;;;10.70;69.02
71966;BME280;59836;52.132;5.442;2023-04-15T08:24:14;101399.09;;;10.85;69.08
71966;BME280;59836;52.132;5.442;2023-04-15T08:26:41;101398.38;;;10.95;68.47
71966;BME280;59836;52.132;5.442;2023-04-15T08:29:07;101389.25;;;11.06;68.14
71966;BME280;59836;52.132;5.442;2023-04-15T08:31:34;101393.66;;;11.12;68.05
71966;BME280;59836;52.132;5.442;2023-04-15T08:34:01;101398.06;;;11.23;67.39
71966;BME280;59836;52.132;5.442;2023-04-15T08:36:36;101402.41;;;11.25;67.37
71966;BME280;59836;52.132;5.442;2023-04-15T08:39:02;101408.94;;;11.29;66.28
71966;BME280;59836;52.132;5.442;2023-04-15T08:41:39;101405.69;;;11.27;66.33
71966;BME280;59836;52.132;5.442;2023-04-15T08:44:06;101411.34;;;11.20;65.89
71966;BME280;59836;52.132;5.442;2023-04-15T08:46:32;101424.03;;;11.14;66.50
71966;BME280;59836;52.132;5.442;2023-04-15T08:49:02;101430.31;;;11.15;66.10
71966;BME280;59836;52.132;5.442;2023-04-15T08:51:31;101437.63;;;11.14;65.57
71966;BME280;59836;52.132;5.442;2023-04-15T08:53:59;101436.25;;;11.12;65.96
71966;BME280;59836;52.132;5.442;2023-04-15T08:56:26;101448.47;;;11.14;66.01
71966;BME280;59836;52.132;5.442;2023-04-15T08:58:53;101446.97;;;11.29;66.61
71966;BME280;59836;52.132;5.442;2023-04-15T09:01:20;101445.41;;;11.38;65.52
71966;BME280;59836;52.132;5.442;2023-04-15T09:03:49;101451.72;;;11.44;65.55
71966;BME280;59836;52.132;5.442;2023-04-15T09:06:24;101454.19;;;11.50;65.70
71966;BME280;59836;52.132;5.442;2023-04-15T09:08:51;101457.28;;;11.64;65.45
71966;BME280;59836;52.132;5.442;2023-04-15T09:11:18;101458.66;;;11.67;64.83
71966;BME280;59836;52.132;5.442;2023-04-15T09:13:45;101465.13;;;11.61;64.87
71966;BME280;59836;52.132;5.442;2023-04-15T09:16:18;101462.47;;;11.66;65.21
71966;BME280;59836;52.132;5.442;2023-04-15T09:18:44;101471.16;;;11.68;65.33
71966;BME280;59836;52.132;5.442;2023-04-15T09:21:13;101464.44;;;11.81;65.80
71966;BME280;59836;52.132;5.442;2023-04-15T09:23:53;101478.94;;;11.92;66.43
71966;BME280;59836;52.132;5.442;2023-04-15T09:26:34;101480.59;;;11.98;65.26
71966;BME280;59836;52.132;5.442;2023-04-15T09:29:05;101485.69;;;11.89;65.45
71966;BME280;59836;52.132;5.442;2023-04-15T09:31:32;101488.41;;;11.89;65.78
71966;BME280;59836;52.132;5.442;2023-04-15T09:33:59;101490.31;;;11.89;65.58
71966;BME280;59836;52.132;5.442;2023-04-15T09:36:26;101487.63;;;11.94;65.84
71966;BME280;59836;52.132;5.442;2023-04-15T09:38:58;101487.09;;;11.92;65.52
71966;BME280;59836;52.132;5.442;2023-04-15T09:41:27;101497.94;;;11.92;65.92
71966;BME280;59836;52.132;5.442;2023-04-15T09:43:53;101494.41;;;11.91;65.92
71966;BME280;59836;52.132;5.442;2023-04-15T09:46:39;101491.16;;;11.94;66.02
71966;BME280;59836;52.132;5.442;2023-04-15T09:49:07;101498.22;;;11.95;66.55
71966;BME280;59836;52.132;5.442;2023-04-15T09:51:34;101495.75;;;11.89;65.69
71966;BME280;59836;52.132;5.442;2023-04-15T09:54:00;101495.19;;;11.87;66.38
71966;BME280;59836;52.132;5.442;2023-04-15T09:56:34;101494.69;;;11.90;65.73
71966;BME280;59836;52.132;5.442;2023-04-15T09:59:07;101503.91;;;11.89;65.19
71966;BME280;59836;52.132;5.442;2023-04-15T10:01:38;101509.31;;;11.84;65.02
71966;BME280;59836;52.132;5.442;2023-04-15T10:04:07;101503.38;;;11.92;65.56
71966;BME280;59836;52.132;5.442;2023-04-15T10:06:34;101510.03;;;12.06;65.30
71966;BME280;59836;52.132;5.442;2023-04-15T10:09:01;101517.97;;;12.18;64.87
71966;BME280;59836;52.132;5.442;2023-04-15T10:11:32;101521.84;;;12.28;64.85
71966;BME280;59836;52.132;5.442;2023-04-15T10:14:00;101518.06;;;12.39;64.65
71966;BME280;59836;52.132;5.442;2023-04-15T10:16:27;101506.72;;;12.52;65.32
71966;BME280;59836;52.132;5.442;2023-04-15T10:18:55;101513.53;;;12.60;63.30
71966;BME280;59836;52.132;5.442;2023-04-15T10:21:23;101517.88;;;12.56;63.18
71966;BME280;59836;52.132;5.442;2023-04-15T10:23:50;101520.03;;;12.54;62.69
71966;BME280;59836;52.132;5.442;2023-04-15T10:26:16;101516.22;;;12.55;63.04
71966;BME280;59836;52.132;5.442;2023-04-15T10:28:44;101526.06;;;12.61;63.31
71966;BME280;59836;52.132;5.442;2023-04-15T10:31:17;101514.63;;;12.64;62.94
71966;BME280;59836;52.132;5.442;2023-04-15T10:34:04;101515.19;;;12.72;63.62
71966;BME280;59836;52.132;5.442;2023-04-15T10:36:32;101519.56;;;12.78;63.20
71966;BME280;59836;52.132;5.442;2023-04-15T10:38:59;101521.25;;;12.89;63.49
71966;BME280;59836;52.132;5.442;2023-04-15T10:41:27;101523.44;;;12.92;62.95
71966;BME280;59836;52.132;5.442;2023-04-15T10:44:03;101536.50;;;12.90;62.96
71966;BME280;59836;52.132;5.442;2023-04-15T10:46:38;101536.50;;;12.95;63.38
71966;BME280;59836;52.132;5.442;2023-04-15T10:49:12;101540.88;;;12.96;63.60
71966;BME280;59836;52.132;5.442;2023-04-15T10:51:51;101547.94;;;12.92;63.10
71966;BME280;59836;52.132;5.442;2023-04-15T10:59:31;101547.81;;;12.61;63.32
71966;BME280;59836;52.132;5.442;2023-04-15T11:02:02;101547.28;;;12.64;63.48
71966;BME280;59836;52.132;5.442;2023-04-15T11:04:52;101551.66;;;12.70;63.50
71966;BME280;59836;52.132;5.442;2023-04-15T11:18:18;101566.94;;;12.77;62.78
71966;BME280;59836;52.132;5.442;2023-04-15T11:20:52;101560.13;;;12.79;61.77
71966;BME280;59836;52.132;5.442;2023-04-15T11:23:38;101566.97;;;12.87;62.66
71966;BME280;59836;52.132;5.442;2023-04-15T11:26:09;101570.56;;;13.03;61.50
71966;BME280;59836;52.132;5.442;2023-04-15T11:28:39;101566.22;;;13.18;60.11
71966;BME280;59836;52.132;5.442;2023-04-15T11:31:14;101561.59;;;13.28;60.32
71966;BME280;59836;52.132;5.442;2023-04-15T11:33:58;101566.31;;;13.43;60.49
71966;BME280;59836;52.132;5.442;2023-04-15T11:36:26;101567.41;;;13.53;60.56
71966;BME280;59836;52.132;5.442;2023-04-15T11:38:53;101572.56;;;13.60;60.98
71966;BME280;59836;52.132;5.442;2023-04-15T11:41:20;101569.03;;;13.75;61.34
71966;BME280;59836;52.132;5.442;2023-04-15T11:43:48;101567.41;;;13.73;60.22
71966;BME280;59836;52.132;5.442;2023-04-15T11:46:15;101572.56;;;13.60;60.09
71966;BME280;59836;52.132;5.442;2023-04-15T11:48:43;101573.34;;;13.39;59.19
71966;BME280;59836;52.132;5.442;2023-04-15T11:51:11;101576.06;;;13.34;59.70
71966;BME280;59836;52.132;5.442;2023-04-15T11:53:40;101576.91;;;13.45;60.54
71966;BME280;59836;52.132;5.442;2023-04-15T11:56:08;101575.56;;;13.53;60.54
71966;BME280;59836;52.132;5.442;2023-04-15T11:58:42;101584.28;;;13.50;60.75
71966;BME280;59836;52.132;5.442;2023-04-15T12:01:10;101589.47;;;13.51;61.66
71966;BME280;59836;52.132;5.442;2023-04-15T12:03:55;101596.56;;;13.57;60.87
71966;BME280;59836;52.132;5.442;2023-04-15T12:06:23;101593.81;;;13.52;60.42
71966;BME280;59836;52.132;5.442;2023-04-15T12:08:57;101596.81;;;13.46;61.68
71966;BME280;59836;52.132;5.442;2023-04-15T12:11:47;101598.75;;;13.71;61.32
71966;BME280;59836;52.132;5.442;2023-04-15T12:16:45;101598.75;;;13.97;60.70
71966;BME280;59836;52.132;5.442;2023-04-15T12:19:25;101605.53;;;14.05;59.97
71966;BME280;59836;52.132;5.442;2023-04-15T12:22:01;101614.56;;;14.15;60.97
71966;BME280;59836;52.132;5.442;2023-04-15T12:24:32;101612.63;;;14.16;60.36
71966;BME280;59836;52.132;5.442;2023-04-15T12:27:04;101620.25;;;14.14;59.74
71966;BME280;59836;52.132;5.442;2023-04-15T12:29:32;101627.09;;;13.91;59.31
71966;BME280;59836;52.132;5.442;2023-04-15T12:32:13;101627.09;;;13.85;59.25
71966;BME280;59836;52.132;5.442;2023-04-15T12:34:43;101626.00;;;13.86;59.19
71966;BME280;59836;52.132;5.442;2023-04-15T12:37:11;101637.47;;;13.78;59.63
71966;BME280;59836;52.132;5.442;2023-04-15T12:39:41;101640.19;;;13.68;58.79
71966;BME280;59836;52.132;5.442;2023-04-15T12:42:08;101630.91;;;13.69;59.58
71966;BME280;59836;52.132;5.442;2023-04-15T12:44:38;101647.28;;;13.74;59.18
71966;BME280;59836;52.132;5.442;2023-04-15T12:47:06;101643.75;;;13.73;58.97
71966;BME280;59836;52.132;5.442;2023-04-15T12:49:35;101653.81;;;13.73;59.15
71966;BME280;59836;52.132;5.442;2023-04-15T12:52:11;101652.72;;;13.64;60.43
71966;BME280;59836;52.132;5.442;2023-04-15T12:54:38;101649.44;;;13.67;61.50
71966;BME280;59836;52.132;5.442;2023-04-15T12:57:09;101660.91;;;13.74;60.87
71966;BME280;59836;52.132;5.442;2023-04-15T12:59:35;101652.19;;;13.77;60.95
71966;BME280;59836;52.132;5.442;2023-04-15T13:02:09;101671.53;;;13.60;60.30
71966;BME280;59836;52.132;5.442;2023-04-15T13:04:36;101662.25;;;13.61;60.34
71966;BME280;59836;52.132;5.442;2023-04-15T13:07:02;101677.22;;;13.53;60.33
71966;BME280;59836;52.132;5.442;2023-04-15T13:09:30;101673.41;;;13.54;61.39
71966;BME280;59836;52.132;5.442;2023-04-15T13:11:57;101674.78;;;13.52;60.99
71966;BME280;59836;52.132;5.442;2023-04-15T13:14:24;101687.50;;;13.41;61.42
71966;BME280;59836;52.132;5.442;2023-04-15T13:17:01;101687.72;;;13.24;62.32
71966;BME280;59836;52.132;5.442;2023-04-15T13:19:30;101695.06;;;13.13;62.82
71966;BME280;59836;52.132;5.442;2023-04-15T13:22:01;101703.75;;;13.10;62.70
71966;BME280;59836;52.132;5.442;2023-04-15T13:24:27;101698.22;;;12.94;63.36
71966;BME280;59836;52.132;5.442;2023-04-15T13:26:54;101709.09;;;12.89;63.89
71966;BME280;59836;52.132;5.442;2023-04-15T13:29:24;101704.47;;;12.90;64.37
71966;BME280;59836;52.132;5.442;2023-04-15T13:31:55;101700.66;;;12.91;64.37
71966;BME280;59836;52.132;5.442;2023-04-15T13:34:22;101711.13;;;12.66;65.01